Truckee Tahoe Airport
KTRK : rendu visible

Aérodrome :











RETROUVEZ-NOUS SUR...

 
LOGIN :

S'inscrire | Disclaimer

   EN    FR    IT 

 









Légende :    VFR   VFR Marginal   IFR   IFR Intensif   IFR Très Intensif
Visi : 
Plafond : 
>= 8 km
>= 3000ft
5 à 8 km
1000 à 3000 ft
1500m à 5 km
500 à 1000 ft
800 à 1500m
200 à 500 ft
< 800m
< 200 ft
Symboles :   Orages  Brouillard  Fortes neiges  Fortes précipitations  Vent > 20 kt






- Altitude de l'aérodrome : 5900 ft


KTRK - Truckee Tahoe

DERNIER METAR :
  • 220515Z AUTO 00000KT 10SM SCT031 OVC048 02/M01 A3006 RMK AO2

METARs EXPIRÉS :
  • 220455Z AUTO 00000KT 10SM OVC048 02/M01 A3006 RMK AO2
  • 220435Z AUTO 00000KT 10SM SCT031 OVC048 03/M01 A3005 RMK AO2
  • 220415Z AUTO 00000KT 10SM OVC029 03/M01 A3004 RMK AO2
  • 220355Z AUTO 00000KT 10SM OVC027 03/M01 A3003 RMK AO2
  • 220335Z AUTO 36003KT 10SM OVC027 03/M01 A3003 RMK AO2
  • 220315Z AUTO 36003KT 10SM OVC031 03/M01 A3002 RMK AO2
  • 220255Z AUTO 00000KT 10SM OVC033 03/M01 A3001 RMK AO2
  • 220235Z AUTO 00000KT 10SM SCT033 OVC044 03/M01 A3000 RMK AO2

TAF KTRK
Valide du 22 à 06h jusqu'au 23 à 06h UTC


220522Z 2206/2306 00000KT P6SM SCT030 OVC050
FM221000 00000KT P6SM SCT050
FM221200 00000KT 1/4SM FZFG VV002
FM221700 00000KT P6SM FEW008 SCT050
FM221900 VRB03KT P6SM SCT050
FM230200 00000KT P6SM SKC



MET'MAP, la Météo Aéronautique d'un coup d'oeil ! - Copyright ORBIFLY Décembre 2007 - Disclaimer

ORBIFLY MET'MAP TEAM :

Programmation & Développement : Alexandra Zaïnal
Conception & Développement : Baudouin d'Aumeries
Co-Programmation & Développement : Marc-Olivier Méhu
Soutien technique & logistique : Manuel Goepfert

Contact : metmap@orbifly.com




SOURCES & CREDITS :

   NOAA       Earth
Advisory